Time;durP1;ratioP1;P1;durP2;ratioP2;P2;SDS_P1;SDS_P2;PMS_P1;PMS_P2;Temp;Humidity;BMP_temperature;BMP_pressure;BME280_temperature;BME280_humidity;BME280_pressure;Samples;Min_cycle;Max_cycle;Signal;HPM_P1;HPM_P2
2023/08/20 00:02:10;;;;;;;11.20;10.00;;;;;;;20.69;91.39;100805.61;104189;275;39678;-73
2023/08/20 00:04:44;;;;;;;10.90;9.90;;;;;;;20.68;91.28;100805.69;104170;275;39459;-71
2023/08/20 00:07:19;;;;;;;13.00;11.30;;;;;;;20.68;91.46;100804.94;104153;275;38436;-70
2023/08/20 00:09:53;;;;;;;11.20;10.20;;;;;;;20.67;91.39;100802.55;104148;275;38142;-70
2023/08/20 00:12:27;;;;;;;11.60;10.50;;;;;;;20.63;91.05;100805.67;104122;275;38533;-71
2023/08/20 00:15:05;;;;;;;13.10;9.80;;;;;;;20.60;91.02;100803.79;104115;263;38248;-71
2023/08/20 00:17:41;;;;;;;10.80;9.70;;;;;;;20.59;91.26;100801.16;104183;271;38464;-74
2023/08/20 00:20:17;;;;;;;11.00;9.90;;;;;;;20.58;91.29;100798.71;104164;275;38540;-73
2023/08/20 00:22:52;;;;;;;12.10;10.70;;;;;;;20.58;91.43;100796.23;104079;276;38653;-69
2023/08/20 00:25:27;;;;;;;13.70;9.70;;;;;;;20.56;91.01;100798.23;104135;275;39955;-71
2023/08/20 00:28:00;;;;;;;12.80;10.00;;;;;;;20.52;91.10;100800.41;104153;275;38591;-72
2023/08/20 00:30:34;;;;;;;11.20;10.20;;;;;;;20.51;91.58;100795.55;104157;275;39862;-72
2023/08/20 00:33:08;;;;;;;11.50;10.20;;;;;;;20.52;91.65;100793.33;104190;275;38518;-73
2023/08/20 00:35:42;;;;;;;11.60;10.30;;;;;;;20.50;91.39;100793.48;104115;275;39707;-73
2023/08/20 00:38:16;;;;;;;12.00;10.40;;;;;;;20.47;91.32;100788.56;104224;275;39417;-73
2023/08/20 00:40:50;;;;;;;10.70;9.70;;;;;;;20.44;91.18;100790.39;104150;275;38273;-73
2023/08/20 00:43:24;;;;;;;11.80;10.30;;;;;;;20.41;91.25;100790.75;104173;275;39412;-73
2023/08/20 00:45:59;;;;;;;10.70;9.70;;;;;;;20.38;91.10;100789.53;104172;275;39820;-72
2023/08/20 00:48:34;;;;;;;10.80;9.30;;;;;;;20.36;91.19;100792.32;104061;276;38316;-72
2023/08/20 00:51:07;;;;;;;11.80;10.40;;;;;;;20.36;91.31;100792.15;104166;275;38830;-72
2023/08/20 00:53:42;;;;;;;13.50;10.70;;;;;;;20.35;91.54;100790.84;104190;275;38247;-70
2023/08/20 00:56:16;;;;;;;11.90;10.70;;;;;;;20.36;91.96;100791.26;104218;275;38384;-71
2023/08/20 00:58:50;;;;;;;12.30;10.70;;;;;;;20.36;91.49;100788.97;104152;275;39548;-70
2023/08/20 01:01:24;;;;;;;12.00;10.70;;;;;;;20.36;91.76;100791.81;104139;275;39708;-73
2023/08/20 01:03:58;;;;;;;12.70;11.30;;;;;;;20.35;91.77;100790.13;104163;275;39577;-73
2023/08/20 01:06:41;;;;;;;12.00;10.80;;;;;;;20.32;91.57;100788.38;104200;275;38748;-73
2023/08/20 01:09:21;;;;;;;12.80;10.90;;;;;;;20.30;91.63;100787.30;104174;275;38654;-73
2023/08/20 01:11:59;;;;;;;12.20;10.70;;;;;;;20.27;91.80;100786.07;104173;275;40061;-72
2023/08/20 01:14:33;;;;;;;11.60;10.40;;;;;;;20.26;92.00;100787.92;104132;275;38604;-72
2023/08/20 01:17:07;;;;;;;11.90;10.20;;;;;;;20.25;91.90;100785.70;104149;275;39139;-72
2023/08/20 01:19:41;;;;;;;12.50;10.80;;;;;;;20.25;91.94;100784.66;104160;275;38833;-72
2023/08/20 01:22:52;;;;;;;11.20;10.20;;;;;;;20.25;91.96;100787.51;104147;275;38699;-73
2023/08/20 01:25:33;;;;;;;11.30;10.20;;;;;;;20.19;91.26;100788.59;104102;275;38503;-73
2023/08/20 01:28:31;;;;;;;12.30;11.20;;;;;;;20.15;91.46;100789.98;104178;275;38549;-73
2023/08/20 01:31:05;;;;;;;15.60;11.70;;;;;;;20.15;91.74;100791.40;104129;275;38266;-72
2023/08/20 01:33:39;;;;;;;12.80;11.00;;;;;;;20.16;92.08;100790.27;104079;275;39670;-71
2023/08/20 01:36:14;;;;;;;12.80;11.00;;;;;;;20.17;92.00;100787.86;104145;263;38477;-71
2023/08/20 01:38:48;;;;;;;13.00;11.60;;;;;;;20.19;92.21;100788.79;104148;275;38649;-71
2023/08/20 01:41:22;;;;;;;13.10;11.80;;;;;;;20.18;91.79;100788.52;104172;275;38751;-72
2023/08/20 01:43:56;;;;;;;14.10;12.60;;;;;;;20.15;91.57;100784.70;104147;275;38565;-72
2023/08/20 01:46:29;;;;;;;12.80;10.40;;;;;;;20.09;91.67;100783.84;104198;275;38539;-73
2023/08/20 01:49:04;;;;;;;13.60;10.90;;;;;;;20.03;91.41;100784.98;104127;275;38234;-74
2023/08/20 01:51:38;;;;;;;11.80;10.70;;;;;;;19.99;91.49;100792.91;104144;275;38421;-71
2023/08/20 01:54:13;;;;;;;16.00;11.90;;;;;;;19.98;91.88;100793.48;104139;275;39151;-69
2023/08/20 01:56:46;;;;;;;14.00;12.20;;;;;;;19.99;92.16;100797.14;104206;275;38323;-73
2023/08/20 01:59:22;;;;;;;14.80;12.80;;;;;;;19.99;92.44;100799.23;104141;275;38936;-75
2023/08/20 02:01:56;;;;;;;11.80;10.60;;;;;;;19.99;92.33;100797.46;104153;275;38302;-73
2023/08/20 02:04:30;;;;;;;12.80;11.20;;;;;;;20.00;92.53;100803.60;104138;275;39424;-73
2023/08/20 02:07:04;;;;;;;13.40;10.90;;;;;;;20.01;92.41;100804.41;104152;275;39596;-73
2023/08/20 02:09:38;;;;;;;12.00;10.60;;;;;;;20.00;92.04;100803.77;104136;275;39731;-72
2023/08/20 02:12:13;;;;;;;15.70;12.00;;;;;;;20.00;92.09;100800.58;104178;275;38324;-74
2023/08/20 02:14:46;;;;;;;14.40;12.60;;;;;;;19.99;92.38;100803.67;104029;276;39428;-74
2023/08/20 02:17:20;;;;;;;14.10;12.10;;;;;;;19.98;92.57;100803.23;104143;275;38318;-72
2023/08/20 02:19:55;;;;;;;12.90;11.30;;;;;;;19.96;92.27;100804.94;104146;275;38443;-72
2023/08/20 02:22:29;;;;;;;11.30;10.30;;;;;;;19.93;92.18;100807.79;104149;275;38559;-70
2023/08/20 02:25:03;;;;;;;11.60;10.40;;;;;;;19.91;92.32;100805.52;104036;275;38546;-70
2023/08/20 02:27:37;;;;;;;13.20;10.20;;;;;;;19.90;92.25;100802.73;104082;276;38543;-72
2023/08/20 02:30:14;;;;;;;12.40;11.10;;;;;;;19.89;92.33;100804.75;104111;275;39519;-72
2023/08/20 02:32:48;;;;;;;12.30;11.20;;;;;;;19.88;92.29;100801.80;104174;275;38276;-72
2023/08/20 02:35:22;;;;;;;11.80;10.40;;;;;;;19.89;92.30;100803.17;104064;275;175020;-70
2023/08/20 02:37:56;;;;;;;12.00;10.70;;;;;;;19.91;92.40;100802.48;104198;274;38722;-69
2023/08/20 02:40:30;;;;;;;13.80;10.10;;;;;;;19.93;92.38;100801.80;104160;275;39507;-70
2023/08/20 02:43:04;;;;;;;11.50;10.00;;;;;;;19.93;92.31;100797.38;103918;275;174895;-74
2023/08/20 02:45:44;;;;;;;12.70;11.30;;;;;;;19.90;92.10;100795.47;104049;275;176663;-74
2023/08/20 02:48:20;;;;;;;15.70;11.50;;;;;;;19.86;92.27;100791.86;104161;275;39397;-71
2023/08/20 02:50:54;;;;;;;12.30;10.90;;;;;;;19.84;92.30;100790.57;104162;274;38365;-70
2023/08/20 02:53:28;;;;;;;13.50;12.10;;;;;;;19.80;92.25;100786.41;104197;275;40147;-74
2023/08/20 02:56:04;;;;;;;13.20;11.90;;;;;;;19.78;92.35;100787.99;104118;275;38228;-75
2023/08/20 02:58:39;;;;;;;13.00;11.40;;;;;;;19.76;92.47;100787.60;104146;275;38219;-71
2023/08/20 03:01:22;;;;;;;12.30;11.10;;;;;;;19.74;92.33;100788.27;104159;275;38522;-70
2023/08/20 03:03:56;;;;;;;12.90;11.20;;;;;;;19.74;92.38;100789.70;104117;275;38763;-70
2023/08/20 03:06:30;;;;;;;12.90;10.70;;;;;;;19.73;92.33;100788.85;104074;276;38356;-72
2023/08/20 03:09:05;;;;;;;14.30;11.40;;;;;;;19.73;92.48;100786.70;104135;274;38659;-72
2023/08/20 03:11:39;;;;;;;11.30;10.00;;;;;;;19.74;92.60;100791.27;104122;275;38373;-71
2023/08/20 03:14:13;;;;;;;11.30;10.20;;;;;;;19.74;92.29;100793.60;104131;275;38252;-71
2023/08/20 03:16:47;;;;;;;10.30;9.30;;;;;;;19.73;92.15;100793.50;104128;275;39336;-70
2023/08/20 03:19:21;;;;;;;11.30;9.10;;;;;;;19.72;92.15;100795.86;104155;275;38588;-70
2023/08/20 03:21:54;;;;;;;10.90;9.90;;;;;;;19.72;92.47;100801.34;104204;275;38271;-73
2023/08/20 03:24:28;;;;;;;12.10;9.80;;;;;;;19.72;92.31;100799.94;104146;274;39741;-73
2023/08/20 03:27:02;;;;;;;14.50;9.80;;;;;;;19.71;92.13;100800.13;104148;274;39463;-73
2023/08/20 03:29:36;;;;;;;12.20;10.80;;;;;;;19.71;92.19;100803.55;104137;274;38514;-70
2023/08/20 03:32:10;;;;;;;12.20;10.90;;;;;;;19.70;92.32;100802.21;104174;274;39625;-71
2023/08/20 03:34:44;;;;;;;12.90;10.90;;;;;;;19.68;92.27;100802.80;104146;274;38819;-71
2023/08/20 03:37:18;;;;;;;13.20;11.60;;;;;;;19.68;92.35;100804.10;104181;274;38743;-71
2023/08/20 03:39:52;;;;;;;13.30;11.00;;;;;;;19.67;92.81;100807.86;104107;274;39935;-70
2023/08/20 03:42:26;;;;;;;12.50;11.20;;;;;;;19.68;92.78;100810.11;104169;275;38361;-71
2023/08/20 03:45:00;;;;;;;12.70;11.20;;;;;;;19.68;92.78;100811.85;104017;274;174903;-72
2023/08/20 03:47:34;;;;;;;12.70;11.60;;;;;;;19.69;92.89;100808.06;104158;275;38463;-73
2023/08/20 03:50:10;;;;;;;13.20;11.90;;;;;;;19.72;93.12;100807.89;104069;275;38965;-75
2023/08/20 03:52:44;;;;;;;13.40;12.10;;;;;;;19.76;93.31;100810.66;103912;275;38879;-74
2023/08/20 03:55:18;;;;;;;13.90;11.50;;;;;;;19.78;93.20;100812.42;104059;275;40358;-73
2023/08/20 03:57:52;;;;;;;11.50;10.50;;;;;;;19.78;93.34;100810.95;104192;274;39445;-72
2023/08/20 04:00:25;;;;;;;13.60;11.50;;;;;;;19.81;93.25;100805.46;104165;275;39845;-72
2023/08/20 04:02:59;;;;;;;12.50;11.10;;;;;;;19.79;92.82;100807.38;104160;263;38301;-72
2023/08/20 04:05:38;;;;;;;11.60;10.50;;;;;;;19.80;93.10;100810.14;104140;275;38399;-71
2023/08/20 04:08:12;;;;;;;12.00;10.80;;;;;;;19.84;93.45;100811.08;104159;274;39923;-73
2023/08/20 04:10:49;;;;;;;14.30;11.70;;;;;;;19.90;93.69;100806.25;103980;275;39410;-74
2023/08/20 04:13:24;;;;;;;11.90;10.90;;;;;;;19.96;93.91;100805.81;104045;275;39046;-75
2023/08/20 04:16:00;;;;;;;12.20;11.00;;;;;;;20.02;94.04;100807.86;104160;274;38251;-74
2023/08/20 04:18:35;;;;;;;13.00;11.20;;;;;;;20.04;93.44;100811.23;104139;275;38703;-71
2023/08/20 04:21:09;;;;;;;12.10;11.00;;;;;;;20.06;93.55;100816.11;104184;274;39679;-72
2023/08/20 04:23:43;;;;;;;11.90;11.00;;;;;;;20.10;93.90;100820.25;104144;274;38233;-71
2023/08/20 04:26:17;;;;;;;12.80;10.70;;;;;;;20.16;94.19;100818.95;104187;275;38475;-71
2023/08/20 04:28:50;;;;;;;12.20;11.00;;;;;;;20.25;94.63;100815.15;104138;275;38846;-72
2023/08/20 04:31:24;;;;;;;14.70;11.70;;;;;;;20.31;94.57;100818.73;104143;275;40811;-72
2023/08/20 04:33:58;;;;;;;13.90;12.10;;;;;;;20.35;94.70;100816.15;104096;274;38239;-72
2023/08/20 04:36:32;;;;;;;12.90;11.60;;;;;;;20.40;94.92;100812.11;104175;274;38476;-72
2023/08/20 04:39:06;;;;;;;14.20;12.00;;;;;;;20.45;95.05;100815.24;104146;275;38784;-71
2023/08/20 04:41:40;;;;;;;11.30;10.30;;;;;;;20.52;95.29;100819.73;104118;274;38639;-71
2023/08/20 04:44:13;;;;;;;12.30;11.00;;;;;;;20.58;95.33;100817.52;104157;274;38573;-72
2023/08/20 04:46:48;;;;;;;13.10;11.20;;;;;;;20.64;95.52;100815.35;104056;274;175629;-71
2023/08/20 04:49:22;;;;;;;12.60;11.40;;;;;;;20.72;96.05;100811.23;104168;274;39640;-71
2023/08/20 04:51:56;;;;;;;12.50;11.40;;;;;;;20.82;96.42;100815.09;104192;275;38282;-72
2023/08/20 04:54:29;;;;;;;13.30;12.10;;;;;;;20.96;96.78;100813.52;104157;263;38618;-73
2023/08/20 04:57:03;;;;;;;11.70;10.60;;;;;;;21.26;97.68;100816.27;104182;274;38355;-70
2023/08/20 04:59:37;;;;;;;12.30;11.00;;;;;;;21.45;96.99;100815.37;104146;274;38217;-71
2023/08/20 05:02:12;;;;;;;11.30;10.20;;;;;;;21.53;96.33;100813.66;103912;277;39711;-72
2023/08/20 05:04:46;;;;;;;11.60;10.70;;;;;;;21.62;96.64;100812.06;104136;274;39410;-72
2023/08/20 05:07:20;;;;;;;12.80;11.40;;;;;;;21.73;96.30;100815.69;104185;274;38674;-73
2023/08/20 05:09:53;;;;;;;12.90;11.70;;;;;;;21.86;96.42;100816.06;104118;274;38222;-73
2023/08/20 05:12:27;;;;;;;13.10;11.80;;;;;;;21.99;96.12;100815.41;104183;274;39896;-74
2023/08/20 05:15:01;;;;;;;13.20;11.90;;;;;;;22.08;96.36;100820.57;104123;274;38741;-73
2023/08/20 05:17:35;;;;;;;11.70;10.70;;;;;;;22.20;96.28;100817.16;104081;274;189016;-73
2023/08/20 05:20:11;;;;;;;13.80;11.90;;;;;;;22.30;96.08;100814.04;104175;274;38291;-73
2023/08/20 05:22:45;;;;;;;16.90;15.00;;;;;;;22.43;96.43;100816.89;104083;276;38237;-73
2023/08/20 05:25:19;;;;;;;18.30;16.70;;;;;;;22.56;96.14;100819.05;104036;276;39654;-73
2023/08/20 05:27:53;;;;;;;18.00;16.30;;;;;;;22.68;96.06;100820.56;104054;276;38531;-71
2023/08/20 05:30:27;;;;;;;15.90;14.30;;;;;;;22.80;96.05;100824.39;104028;276;38268;-70
2023/08/20 05:33:01;;;;;;;15.40;14.10;;;;;;;22.92;96.10;100823.26;104034;276;38413;-71
2023/08/20 05:35:35;;;;;;;15.80;14.10;;;;;;;23.10;96.17;100823.34;104010;276;38669;-73
2023/08/20 05:38:10;;;;;;;15.40;13.90;;;;;;;23.28;96.21;100827.55;104087;276;39549;-73
2023/08/20 05:40:44;;;;;;;15.00;13.50;;;;;;;23.45;95.50;100829.67;103998;276;40104;-75
2023/08/20 05:43:18;;;;;;;14.70;13.30;;;;;;;23.59;95.20;100832.02;103411;276;895396;-73
2023/08/20 05:45:52;;;;;;;14.50;13.10;;;;;;;23.72;94.60;100830.23;104067;276;38389;-73
2023/08/20 05:48:26;;;;;;;16.10;14.60;;;;;;;24.09;95.17;100829.11;104046;276;38712;-73
2023/08/20 05:51:01;;;;;;;14.20;13.00;;;;;;;24.77;98.57;100833.13;104046;276;38950;-72
2023/08/20 05:53:35;;;;;;;13.60;12.40;;;;;;;25.63;98.81;100834.16;104059;276;39636;-70
2023/08/20 05:56:09;;;;;;;13.70;12.00;;;;;;;26.49;96.89;100833.71;104074;276;39657;-73
2023/08/20 05:58:43;;;;;;;15.00;13.70;;;;;;;27.48;92.08;100831.36;104032;276;38725;-72
2023/08/20 06:01:16;;;;;;;16.00;14.30;;;;;;;28.39;85.42;100828.40;104079;276;38645;-71
2023/08/20 06:03:50;;;;;;;15.50;14.20;;;;;;;29.17;80.51;100829.84;104030;276;38368;-71
2023/08/20 06:06:25;;;;;;;16.30;15.00;;;;;;;29.88;75.97;100831.63;104058;276;38669;-72
2023/08/20 06:08:59;;;;;;;15.30;14.10;;;;;;;30.55;72.17;100833.30;104029;276;38230;-72
2023/08/20 06:11:33;;;;;;;14.80;13.40;;;;;;;31.09;68.65;100831.84;104037;276;38463;-71
2023/08/20 06:14:07;;;;;;;14.10;12.90;;;;;;;31.65;66.79;100833.83;104037;276;38539;-71
2023/08/20 06:16:41;;;;;;;14.70;13.60;;;;;;;32.15;63.11;100836.32;104053;264;38649;-73
2023/08/20 06:19:14;;;;;;;14.00;12.70;;;;;;;32.56;61.18;100837.62;104021;276;38251;-72
2023/08/20 06:21:48;;;;;;;13.70;12.60;;;;;;;33.01;59.33;100836.05;104147;274;38467;-72
2023/08/20 06:24:22;;;;;;;14.30;13.10;;;;;;;33.45;57.74;100835.95;104028;276;39409;-72
2023/08/20 06:26:57;;;;;;;14.10;12.80;;;;;;;33.83;55.47;100840.29;104176;274;38682;-75
2023/08/20 06:29:31;;;;;;;14.40;13.20;;;;;;;34.08;54.01;100842.80;104321;274;38497;-74
2023/08/20 06:32:05;;;;;;;14.90;13.60;;;;;;;34.18;53.61;100843.64;104185;274;39902;-75
2023/08/20 06:34:39;;;;;;;17.10;15.60;;;;;;;33.97;53.13;100846.98;104158;274;38508;-75
2023/08/20 06:37:13;;;;;;;17.60;16.30;;;;;;;33.51;53.08;100845.61;104179;275;39992;-71
2023/08/20 06:39:47;;;;;;;18.50;16.90;;;;;;;33.05;54.28;100844.23;104123;275;38248;-72
2023/08/20 06:42:21;;;;;;;17.70;16.20;;;;;;;32.75;54.55;100846.97;104209;275;39444;-72
2023/08/20 06:44:55;;;;;;;18.00;16.50;;;;;;;32.38;55.34;100849.18;104119;275;39186;-71
2023/08/20 06:47:28;;;;;;;16.90;15.40;;;;;;;32.07;56.07;100848.21;104190;275;38853;-75
2023/08/20 06:50:02;;;;;;;16.80;15.20;;;;;;;31.71;56.69;100850.75;104143;275;38270;-76
2023/08/20 06:52:36;;;;;;;16.70;15.40;;;;;;;31.40;57.37;100852.33;104194;274;39424;-71
2023/08/20 06:55:11;;;;;;;17.20;15.80;;;;;;;31.15;58.50;100856.60;104030;276;39200;-71
2023/08/20 06:57:45;;;;;;;15.40;14.20;;;;;;;30.96;57.79;100855.01;104155;275;38415;-72
2023/08/20 07:00:20;;;;;;;15.50;14.20;;;;;;;30.83;58.90;100854.94;104129;275;39090;-72
2023/08/20 07:02:54;;;;;;;15.10;13.70;;;;;;;30.67;59.50;100863.58;103784;275;504376;-71
2023/08/20 07:05:28;;;;;;;15.00;13.80;;;;;;;30.53;60.24;100864.55;104136;274;40162;-71
2023/08/20 07:08:02;;;;;;;15.50;14.00;;;;;;;30.36;60.18;100866.48;104040;275;173970;-75
2023/08/20 07:10:36;;;;;;;15.20;13.60;;;;;;;30.17;60.52;100866.54;103995;276;38433;-75
2023/08/20 07:13:10;;;;;;;14.40;12.90;;;;;;;30.06;61.09;100870.15;104173;275;39394;-73
2023/08/20 07:15:43;;;;;;;14.30;13.10;;;;;;;30.00;59.96;100872.30;104152;275;38951;-72
2023/08/20 07:18:17;;;;;;;13.90;12.70;;;;;;;29.95;60.35;100872.18;104178;275;38753;-71
2023/08/20 07:20:52;;;;;;;13.30;12.20;;;;;;;29.99;61.07;100875.27;104150;275;38232;-73
2023/08/20 07:23:26;;;;;;;14.20;13.00;;;;;;;30.08;60.19;100876.64;104163;275;39629;-72
2023/08/20 07:26:10;;;;;;;13.60;12.50;;;;;;;30.19;60.36;100869.11;104185;275;40319;-72
2023/08/20 07:28:59;;;;;;;13.70;12.50;;;;;;;30.30;60.47;100869.20;103991;275;38655;-73
2023/08/20 07:31:34;;;;;;;13.60;12.60;;;;;;;30.48;60.31;100873.68;104121;274;38647;-73
2023/08/20 07:34:08;;;;;;;14.70;13.30;;;;;;;30.70;60.13;100876.46;104151;275;38614;-71
2023/08/20 07:36:42;;;;;;;13.80;12.60;;;;;;;30.92;59.05;100873.55;104170;275;38489;-72
2023/08/20 07:39:16;;;;;;;13.40;12.40;;;;;;;31.14;57.91;100870.52;104173;275;38735;-71
2023/08/20 07:41:50;;;;;;;13.10;12.00;;;;;;;31.53;58.20;100867.09;104198;275;38831;-74
2023/08/20 07:44:23;;;;;;;13.20;12.10;;;;;;;32.16;56.90;100868.70;104082;274;38719;-75
2023/08/20 07:46:57;;;;;;;13.60;12.60;;;;;;;32.69;54.89;100871.75;103966;275;188841;-73
2023/08/20 07:49:32;;;;;;;12.80;11.90;;;;;;;32.88;53.81;100871.92;104177;274;39208;-73
2023/08/20 07:52:06;;;;;;;11.70;10.90;;;;;;;33.14;53.17;100872.55;104173;275;39656;-72
2023/08/20 07:54:40;;;;;;;12.80;11.90;;;;;;;33.44;52.30;100872.27;104105;275;39131;-71
2023/08/20 07:57:15;;;;;;;12.60;11.60;;;;;;;33.62;51.09;100873.51;104165;275;39204;-74
2023/08/20 07:59:48;;;;;;;12.50;11.40;;;;;;;33.89;50.30;100881.19;104101;275;38797;-73
2023/08/20 08:02:24;;;;;;;12.00;11.10;;;;;;;34.19;49.51;100881.39;104188;275;38348;-71
2023/08/20 08:04:58;;;;;;;12.60;10.80;;;;;;;34.61;49.02;100878.19;104128;275;39352;-70
2023/08/20 08:07:32;;;;;;;11.00;10.10;;;;;;;35.19;48.05;100874.58;104123;274;39025;-71
2023/08/20 08:10:07;;;;;;;10.90;10.10;;;;;;;35.66;45.58;100875.24;104159;274;38471;-71
2023/08/20 08:12:41;;;;;;;11.90;10.70;;;;;;;36.19;44.87;100873.66;104201;274;38360;-75
2023/08/20 08:15:15;;;;;;;10.90;10.10;;;;;;;36.62;43.83;100873.45;104146;274;39399;-75
2023/08/20 08:17:49;;;;;;;11.50;10.60;;;;;;;37.07;43.47;100876.05;104202;274;38094;-72
2023/08/20 08:20:23;;;;;;;11.80;11.00;;;;;;;37.37;41.47;100867.16;104104;274;39954;-72
2023/08/20 08:22:58;;;;;;;11.30;10.50;;;;;;;37.33;41.09;100868.27;103592;274;886348;-74
2023/08/20 08:25:32;;;;;;;9.90;9.20;;;;;;;37.63;39.29;100871.53;104138;274;39800;-73
2023/08/20 08:28:09;;;;;;;10.20;9.50;;;;;;;37.80;40.02;100872.66;104169;270;39948;-72
2023/08/20 08:30:43;;;;;;;10.00;9.30;;;;;;;38.22;40.82;100874.22;104133;274;38255;-74
2023/08/20 08:33:17;;;;;;;9.40;8.70;;;;;;;38.69;40.22;100871.58;104216;274;38426;-72
2023/08/20 08:35:50;;;;;;;8.50;7.80;;;;;;;39.21;39.51;100873.45;104135;274;38625;-72
2023/08/20 08:38:24;;;;;;;9.10;8.40;;;;;;;39.52;37.87;100874.48;104214;274;39428;-73
2023/08/20 08:41:02;;;;;;;9.80;9.20;;;;;;;39.68;37.20;100872.86;104121;274;39975;-73
2023/08/20 08:43:36;;;;;;;9.00;8.10;;;;;;;39.82;37.38;100875.38;104135;274;38996;-72
2023/08/20 08:46:16;;;;;;;8.80;8.20;;;;;;;39.99;36.92;100876.07;104180;274;39686;-72
2023/08/20 08:48:50;;;;;;;7.80;7.20;;;;;;;40.13;35.48;100876.68;104145;275;39656;-71
2023/08/20 08:51:24;;;;;;;8.70;8.00;;;;;;;40.30;35.19;100878.31;104191;274;39609;-71
2023/08/20 08:53:58;;;;;;;8.50;7.90;;;;;;;40.41;34.32;100875.08;104160;274;39023;-72
2023/08/20 08:56:32;;;;;;;7.10;6.60;;;;;;;40.41;34.21;100873.27;104219;274;38282;-73
2023/08/20 08:59:06;;;;;;;7.00;6.50;;;;;;;40.56;34.01;100878.20;104181;274;39616;-73
2023/08/20 09:01:42;;;;;;;6.70;6.20;;;;;;;40.65;33.24;100880.34;104194;263;39099;-70
2023/08/20 09:04:16;;;;;;;7.00;6.40;;;;;;;40.68;32.58;100881.69;104175;274;38408;-71
2023/08/20 09:06:51;;;;;;;7.50;6.90;;;;;;;40.80;32.67;100879.53;104186;275;38628;-74
2023/08/20 09:09:27;;;;;;;7.10;6.60;;;;;;;40.92;33.64;100877.69;104212;274;38536;-73
2023/08/20 09:12:00;;;;;;;;;;;;;;;41.07;32.33;100876.04;104066;275;38704;-75
2023/08/20 09:14:39;;;;;;;6.50;6.10;;;;;;;40.97;32.53;100871.98;103935;275;187091;-75
2023/08/20 09:17:13;;;;;;;7.40;6.80;;;;;;;41.11;32.12;100870.95;104085;275;38265;-72
2023/08/20 09:19:48;;;;;;;7.20;6.70;;;;;;;41.23;31.40;100872.09;104152;274;38838;-70
2023/08/20 09:22:21;;;;;;;7.40;6.90;;;;;;;41.27;31.29;100869.91;104011;275;39312;-73
2023/08/20 09:24:58;;;;;;;7.30;6.80;;;;;;;41.32;31.35;100871.85;104166;274;39929;-74
2023/08/20 09:27:32;;;;;;;10.10;7.50;;;;;;;41.31;30.77;100871.17;104242;274;38507;-73
2023/08/20 09:30:07;;;;;;;8.10;7.50;;;;;;;41.20;31.63;100868.81;104172;274;38525;-73
2023/08/20 09:32:41;;;;;;;8.00;7.50;;;;;;;41.08;32.10;100870.35;104212;274;39663;-74
2023/08/20 09:35:22;;;;;;;8.60;7.80;;;;;;;40.88;31.92;100868.00;104177;274;38653;-74
2023/08/20 09:38:01;;;;;;;9.30;8.50;;;;;;;40.64;32.51;100866.89;104205;275;38786;-72
2023/08/20 09:40:35;;;;;;;9.90;9.00;;;;;;;40.36;32.65;100859.35;104221;274;38800;-73
2023/08/20 09:43:09;;;;;;;10.10;9.30;;;;;;;40.05;33.24;100857.86;104230;274;38264;-73
2023/08/20 09:45:43;;;;;;;11.10;9.40;;;;;;;39.66;33.54;100863.15;104190;274;38783;-72
2023/08/20 09:48:19;;;;;;;10.50;9.50;;;;;;;39.15;34.31;100865.78;104195;274;38224;-73
2023/08/20 09:50:53;;;;;;;8.80;8.20;;;;;;;38.85;35.26;100862.45;104190;275;38263;-73
2023/08/20 09:53:34;;;;;;;9.40;8.80;;;;;;;38.54;34.58;100859.62;104208;274;39644;-72
2023/08/20 09:56:14;;;;;;;9.90;9.10;;;;;;;38.07;34.29;100858.48;104175;274;38508;-73
2023/08/20 09:58:48;;;;;;;9.40;8.70;;;;;;;37.60;34.91;100856.59;104169;274;39645;-73
2023/08/20 10:01:22;;;;;;;9.70;8.90;;;;;;;37.31;35.78;100851.42;104102;274;174081;-73
2023/08/20 10:03:56;;;;;;;9.30;8.50;;;;;;;37.14;35.85;100848.17;104178;274;40330;-72
2023/08/20 10:06:30;;;;;;;9.40;8.70;;;;;;;37.02;36.77;100845.05;104206;274;38497;-71
2023/08/20 10:09:04;;;;;;;8.80;8.20;;;;;;;37.00;37.07;100843.62;104156;274;38620;-71
2023/08/20 10:11:38;;;;;;;9.70;9.00;;;;;;;36.92;37.23;100846.40;104118;274;38292;-71
2023/08/20 10:14:12;;;;;;;9.70;9.00;;;;;;;36.64;35.99;100841.30;104160;274;38802;-71
2023/08/20 10:16:46;;;;;;;10.10;9.30;;;;;;;36.13;36.39;100843.08;104183;274;38732;-73
2023/08/20 10:19:20;;;;;;;9.20;8.40;;;;;;;35.75;37.40;100840.06;104117;274;38240;-73
2023/08/20 10:21:56;;;;;;;9.50;8.80;;;;;;;35.68;37.46;100838.23;104222;274;39755;-71
2023/08/20 10:24:32;;;;;;;8.80;8.10;;;;;;;35.64;37.68;100836.55;104148;274;39424;-69
2023/08/20 10:27:13;;;;;;;9.20;8.40;;;;;;;35.55;37.58;100835.23;104209;274;38237;-73
2023/08/20 10:29:48;;;;;;;9.60;9.00;;;;;;;35.28;37.94;100835.91;104186;274;38256;-71
2023/08/20 10:32:23;;;;;;;9.70;9.00;;;;;;;35.13;38.50;100830.48;104176;274;38936;-73
2023/08/20 10:34:58;;;;;;;9.60;8.80;;;;;;;35.13;38.31;100827.79;104156;274;39836;-73
2023/08/20 10:37:34;;;;;;;9.60;8.80;;;;;;;35.08;38.79;100826.19;104236;274;39677;-72
2023/08/20 10:40:11;;;;;;;9.20;8.30;;;;;;;35.02;38.98;100828.04;104182;275;40110;-72
2023/08/20 10:42:45;;;;;;;9.20;8.30;;;;;;;34.80;38.67;100831.61;104178;275;39425;-75
2023/08/20 10:45:20;;;;;;;9.60;8.80;;;;;;;34.77;39.27;100832.73;104116;275;39408;-74
2023/08/20 10:47:55;;;;;;;9.20;8.50;;;;;;;34.85;39.19;100832.20;104098;276;38800;-74
2023/08/20 10:50:29;;;;;;;9.80;8.90;;;;;;;34.95;38.63;100829.72;104129;275;39932;-74
2023/08/20 10:53:06;;;;;;;9.40;8.80;;;;;;;34.89;38.02;100828.48;104180;275;39423;-73
2023/08/20 10:55:51;;;;;;;9.60;8.80;;;;;;;34.82;37.99;100823.54;104152;275;38601;-72
2023/08/20 10:58:29;;;;;;;9.50;8.80;;;;;;;34.85;38.34;100824.21;104213;275;38409;-76
2023/08/20 11:01:26;;;;;;;9.70;9.00;;;;;;;34.95;39.10;100823.16;104135;274;39456;-76
2023/08/20 11:04:04;;;;;;;9.50;8.80;;;;;;;35.01;39.31;100820.28;104122;275;38450;-72
2023/08/20 11:06:39;;;;;;;9.80;9.10;;;;;;;35.07;39.36;100816.98;104185;275;39439;-78
2023/08/20 11:09:15;;;;;;;9.50;8.80;;;;;;;35.11;38.74;100818.04;104118;276;38234;-77
2023/08/20 11:11:51;;;;;;;10.20;9.40;;;;;;;35.12;38.31;100818.21;104167;275;38224;-75
2023/08/20 11:14:28;;;;;;;10.30;9.60;;;;;;;35.08;38.49;100817.80;104171;274;38227;-75
2023/08/20 11:17:02;;;;;;;10.60;9.90;;;;;;;35.09;38.64;100815.11;104046;275;38747;-74
2023/08/20 11:19:36;;;;;;;10.20;9.40;;;;;;;35.10;38.59;100810.25;104160;275;39949;-76
2023/08/20 11:22:11;;;;;;;10.70;9.90;;;;;;;34.97;38.30;100814.13;104049;275;38240;-72
2023/08/20 11:24:48;;;;;;;10.30;9.50;;;;;;;34.75;37.99;100811.31;104163;275;39641;-72
2023/08/20 11:27:28;;;;;;;11.10;10.30;;;;;;;34.55;38.39;100810.67;104052;275;39516;-74
2023/08/20 11:30:07;;;;;;;10.00;9.30;;;;;;;34.48;38.62;100807.34;104198;275;39343;-72
2023/08/20 11:32:45;;;;;;;10.40;9.60;;;;;;;34.27;38.68;100803.73;104173;275;38677;-74
2023/08/20 11:35:20;;;;;;;11.00;10.00;;;;;;;34.12;38.97;100797.87;104169;275;38255;-74
2023/08/20 11:37:55;;;;;;;11.10;10.10;;;;;;;34.11;38.98;100795.31;104184;275;38222;-75
2023/08/20 11:40:33;;;;;;;10.80;9.90;;;;;;;34.08;39.12;100788.73;104166;275;38265;-73
2023/08/20 11:43:15;;;;;;;11.30;10.40;;;;;;;33.97;39.55;100792.30;104176;275;38274;-70
2023/08/20 11:45:54;;;;;;;10.60;9.70;;;;;;;33.77;39.37;100793.39;104140;275;39387;-70
2023/08/20 11:48:27;;;;;;;11.10;10.40;;;;;;;33.54;39.51;100788.36;104183;274;39902;-74
2023/08/20 11:51:02;;;;;;;11.50;10.70;;;;;;;33.45;39.55;100786.46;104041;276;38965;-75